sensor_id;sensor_type;location;lat;lon;timestamp;P1;durP1;ratioP1;P2;durP2;ratioP2
2658;SDS011;1339;53.304;10.406;2024-02-14T00:01:27;3.40;;;2.95;;
2658;SDS011;1339;53.304;10.406;2024-02-14T00:03:54;2.90;;;2.22;;
2658;SDS011;1339;53.304;10.406;2024-02-14T00:06:22;2.85;;;2.55;;
2658;SDS011;1339;53.304;10.406;2024-02-14T00:08:50;2.55;;;2.35;;
2658;SDS011;1339;53.304;10.406;2024-02-14T00:11:17;3.20;;;2.20;;
2658;SDS011;1339;53.304;10.406;2024-02-14T00:13:44;4.60;;;2.45;;
2658;SDS011;1339;53.304;10.406;2024-02-14T00:16:11;3.25;;;2.30;;
2658;SDS011;1339;53.304;10.406;2024-02-14T00:18:38;3.22;;;2.55;;
2658;SDS011;1339;53.304;10.406;2024-02-14T00:21:06;3.55;;;1.85;;
2658;SDS011;1339;53.304;10.406;2024-02-14T00:23:34;4.30;;;2.65;;
2658;SDS011;1339;53.304;10.406;2024-02-14T00:26:01;2.65;;;2.20;;
2658;SDS011;1339;53.304;10.406;2024-02-14T00:28:28;3.50;;;2.70;;
2658;SDS011;1339;53.304;10.406;2024-02-14T00:30:55;2.55;;;2.35;;
2658;SDS011;1339;53.304;10.406;2024-02-14T00:33:22;2.45;;;2.20;;
2658;SDS011;1339;53.304;10.406;2024-02-14T00:35:50;3.65;;;1.98;;
2658;SDS011;1339;53.304;10.406;2024-02-14T00:38:17;2.67;;;2.47;;
2658;SDS011;1339;53.304;10.406;2024-02-14T00:40:45;2.42;;;2.22;;
2658;SDS011;1339;53.304;10.406;2024-02-14T00:43:12;4.38;;;2.40;;
2658;SDS011;1339;53.304;10.406;2024-02-14T00:45:40;3.50;;;2.60;;
2658;SDS011;1339;53.304;10.406;2024-02-14T00:48:07;3.50;;;3.20;;
2658;SDS011;1339;53.304;10.406;2024-02-14T00:50:34;4.30;;;2.70;;
2658;SDS011;1339;53.304;10.406;2024-02-14T00:53:02;2.47;;;2.20;;
2658;SDS011;1339;53.304;10.406;2024-02-14T00:55:30;4.70;;;3.17;;
2658;SDS011;1339;53.304;10.406;2024-02-14T00:57:58;2.95;;;2.53;;
2658;SDS011;1339;53.304;10.406;2024-02-14T01:00:25;3.30;;;2.40;;
2658;SDS011;1339;53.304;10.406;2024-02-14T01:02:53;2.75;;;2.10;;
2658;SDS011;1339;53.304;10.406;2024-02-14T01:05:21;9.38;;;2.10;;
2658;SDS011;1339;53.304;10.406;2024-02-14T01:07:48;3.47;;;2.45;;
2658;SDS011;1339;53.304;10.406;2024-02-14T01:10:16;2.40;;;2.20;;
2658;SDS011;1339;53.304;10.406;2024-02-14T01:12:44;2.05;;;1.85;;
2658;SDS011;1339;53.304;10.406;2024-02-14T01:15:12;1.83;;;1.73;;
2658;SDS011;1339;53.304;10.406;2024-02-14T01:17:39;2.55;;;2.25;;
2658;SDS011;1339;53.304;10.406;2024-02-14T01:20:07;3.03;;;2.28;;
2658;SDS011;1339;53.304;10.406;2024-02-14T01:22:34;2.53;;;2.33;;
2658;SDS011;1339;53.304;10.406;2024-02-14T01:25:01;6.35;;;2.58;;
2658;SDS011;1339;53.304;10.406;2024-02-14T01:27:29;3.65;;;3.00;;
2658;SDS011;1339;53.304;10.406;2024-02-14T01:29:56;2.92;;;2.65;;
2658;SDS011;1339;53.304;10.406;2024-02-14T01:32:25;2.55;;;2.35;;
2658;SDS011;1339;53.304;10.406;2024-02-14T01:34:54;2.67;;;2.47;;
2658;SDS011;1339;53.304;10.406;2024-02-14T01:37:21;3.25;;;2.45;;
2658;SDS011;1339;53.304;10.406;2024-02-14T01:39:49;4.22;;;2.90;;
2658;SDS011;1339;53.304;10.406;2024-02-14T01:42:16;3.67;;;2.80;;
2658;SDS011;1339;53.304;10.406;2024-02-14T01:44:43;2.85;;;2.47;;
2658;SDS011;1339;53.304;10.406;2024-02-14T01:47:10;4.78;;;2.30;;
2658;SDS011;1339;53.304;10.406;2024-02-14T01:49:38;4.30;;;2.78;;
2658;SDS011;1339;53.304;10.406;2024-02-14T01:52:09;3.45;;;3.25;;
2658;SDS011;1339;53.304;10.406;2024-02-14T01:54:36;3.05;;;2.80;;
2658;SDS011;1339;53.304;10.406;2024-02-14T01:57:03;3.83;;;3.10;;
2658;SDS011;1339;53.304;10.406;2024-02-14T01:59:32;3.53;;;3.10;;
2658;SDS011;1339;53.304;10.406;2024-02-14T02:02:00;3.97;;;3.67;;
2658;SDS011;1339;53.304;10.406;2024-02-14T02:04:28;6.20;;;3.17;;
2658;SDS011;1339;53.304;10.406;2024-02-14T02:06:56;4.88;;;2.95;;
2658;SDS011;1339;53.304;10.406;2024-02-14T02:09:23;3.60;;;2.67;;
2658;SDS011;1339;53.304;10.406;2024-02-14T02:11:51;3.70;;;3.05;;
2658;SDS011;1339;53.304;10.406;2024-02-14T02:14:21;4.68;;;3.22;;
2658;SDS011;1339;53.304;10.406;2024-02-14T02:16:48;3.47;;;2.95;;
2658;SDS011;1339;53.304;10.406;2024-02-14T02:19:15;2.97;;;2.78;;
2658;SDS011;1339;53.304;10.406;2024-02-14T02:21:42;3.05;;;2.85;;
2658;SDS011;1339;53.304;10.406;2024-02-14T02:24:12;4.00;;;3.13;;
2658;SDS011;1339;53.304;10.406;2024-02-14T02:26:39;4.32;;;3.80;;
2658;SDS011;1339;53.304;10.406;2024-02-14T02:29:06;4.18;;;3.83;;
2658;SDS011;1339;53.304;10.406;2024-02-14T02:31:33;3.40;;;3.10;;
2658;SDS011;1339;53.304;10.406;2024-02-14T02:34:00;5.75;;;3.88;;
2658;SDS011;1339;53.304;10.406;2024-02-14T02:36:27;3.80;;;3.50;;
2658;SDS011;1339;53.304;10.406;2024-02-14T02:38:56;5.45;;;4.28;;
2658;SDS011;1339;53.304;10.406;2024-02-14T02:41:27;3.55;;;3.22;;
2658;SDS011;1339;53.304;10.406;2024-02-14T02:43:54;3.75;;;3.55;;
2658;SDS011;1339;53.304;10.406;2024-02-14T02:46:21;4.20;;;3.80;;
2658;SDS011;1339;53.304;10.406;2024-02-14T02:48:48;4.22;;;3.90;;
2658;SDS011;1339;53.304;10.406;2024-02-14T02:51:16;3.75;;;3.45;;
2658;SDS011;1339;53.304;10.406;2024-02-14T02:53:44;4.15;;;3.75;;
2658;SDS011;1339;53.304;10.406;2024-02-14T02:56:11;3.88;;;3.60;;
2658;SDS011;1339;53.304;10.406;2024-02-14T02:58:41;3.47;;;3.28;;
2658;SDS011;1339;53.304;10.406;2024-02-14T03:01:09;6.05;;;4.75;;
2658;SDS011;1339;53.304;10.406;2024-02-14T03:03:37;4.85;;;4.05;;
2658;SDS011;1339;53.304;10.406;2024-02-14T03:06:04;3.85;;;3.35;;
2658;SDS011;1339;53.304;10.406;2024-02-14T03:08:31;4.40;;;3.78;;
2658;SDS011;1339;53.304;10.406;2024-02-14T03:11:04;5.05;;;4.22;;
2658;SDS011;1339;53.304;10.406;2024-02-14T03:13:31;3.80;;;3.50;;
2658;SDS011;1339;53.304;10.406;2024-02-14T03:16:00;3.80;;;3.50;;
2658;SDS011;1339;53.304;10.406;2024-02-14T03:18:27;4.25;;;3.80;;
2658;SDS011;1339;53.304;10.406;2024-02-14T03:20:54;5.93;;;4.70;;
2658;SDS011;1339;53.304;10.406;2024-02-14T03:23:21;12.13;;;4.03;;
2658;SDS011;1339;53.304;10.406;2024-02-14T03:25:48;5.70;;;4.30;;
2658;SDS011;1339;53.304;10.406;2024-02-14T03:28:16;5.28;;;3.80;;
2658;SDS011;1339;53.304;10.406;2024-02-14T03:30:44;4.72;;;4.20;;
2658;SDS011;1339;53.304;10.406;2024-02-14T03:33:12;5.40;;;4.88;;
2658;SDS011;1339;53.304;10.406;2024-02-14T03:35:39;4.43;;;3.83;;
2658;SDS011;1339;53.304;10.406;2024-02-14T03:38:07;7.00;;;3.75;;
2658;SDS011;1339;53.304;10.406;2024-02-14T03:40:35;8.00;;;4.40;;
2658;SDS011;1339;53.304;10.406;2024-02-14T03:43:03;4.80;;;4.40;;
2658;SDS011;1339;53.304;10.406;2024-02-14T03:45:30;7.47;;;4.95;;
2658;SDS011;1339;53.304;10.406;2024-02-14T03:47:57;4.57;;;4.13;;
2658;SDS011;1339;53.304;10.406;2024-02-14T03:50:26;4.50;;;4.10;;
2658;SDS011;1339;53.304;10.406;2024-02-14T03:52:53;4.70;;;4.30;;
2658;SDS011;1339;53.304;10.406;2024-02-14T03:55:20;8.02;;;5.85;;
2658;SDS011;1339;53.304;10.406;2024-02-14T03:57:48;5.97;;;3.90;;
2658;SDS011;1339;53.304;10.406;2024-02-14T04:00:16;7.97;;;4.15;;
2658;SDS011;1339;53.304;10.406;2024-02-14T04:02:43;4.97;;;4.57;;
2658;SDS011;1339;53.304;10.406;2024-02-14T04:05:12;4.80;;;4.13;;
2658;SDS011;1339;53.304;10.406;2024-02-14T04:07:40;6.50;;;4.32;;
2658;SDS011;1339;53.304;10.406;2024-02-14T04:10:10;4.35;;;4.00;;
2658;SDS011;1339;53.304;10.406;2024-02-14T04:12:37;5.15;;;4.72;;
2658;SDS011;1339;53.304;10.406;2024-02-14T04:15:04;12.63;;;5.82;;
2658;SDS011;1339;53.304;10.406;2024-02-14T04:17:32;6.10;;;5.15;;
2658;SDS011;1339;53.304;10.406;2024-02-14T04:19:59;6.13;;;4.05;;
2658;SDS011;1339;53.304;10.406;2024-02-14T04:22:26;5.43;;;4.93;;
2658;SDS011;1339;53.304;10.406;2024-02-14T04:24:54;4.50;;;4.10;;
2658;SDS011;1339;53.304;10.406;2024-02-14T04:27:22;7.15;;;4.78;;
2658;SDS011;1339;53.304;10.406;2024-02-14T04:29:49;5.32;;;4.80;;
2658;SDS011;1339;53.304;10.406;2024-02-14T04:32:16;5.75;;;5.20;;
2658;SDS011;1339;53.304;10.406;2024-02-14T04:34:44;4.53;;;4.20;;
2658;SDS011;1339;53.304;10.406;2024-02-14T04:37:11;5.00;;;4.55;;
2658;SDS011;1339;53.304;10.406;2024-02-14T04:39:40;5.40;;;4.88;;
2658;SDS011;1339;53.304;10.406;2024-02-14T04:42:09;5.22;;;4.72;;
2658;SDS011;1339;53.304;10.406;2024-02-14T04:44:36;7.85;;;4.70;;
2658;SDS011;1339;53.304;10.406;2024-02-14T04:47:04;5.13;;;4.65;;
2658;SDS011;1339;53.304;10.406;2024-02-14T04:49:31;8.40;;;6.40;;
2658;SDS011;1339;53.304;10.406;2024-02-14T04:51:58;6.25;;;5.47;;
2658;SDS011;1339;53.304;10.406;2024-02-14T04:54:25;5.57;;;5.07;;
2658;SDS011;1339;53.304;10.406;2024-02-14T04:56:53;5.55;;;5.05;;
2658;SDS011;1339;53.304;10.406;2024-02-14T04:59:21;5.47;;;4.95;;
2658;SDS011;1339;53.304;10.406;2024-02-14T05:01:48;5.85;;;4.90;;
2658;SDS011;1339;53.304;10.406;2024-02-14T05:04:16;5.47;;;4.97;;
2658;SDS011;1339;53.304;10.406;2024-02-14T05:06:45;6.00;;;5.22;;
2658;SDS011;1339;53.304;10.406;2024-02-14T05:09:15;5.70;;;4.93;;
2658;SDS011;1339;53.304;10.406;2024-02-14T05:11:42;6.15;;;4.90;;
2658;SDS011;1339;53.304;10.406;2024-02-14T05:14:09;7.03;;;4.82;;
2658;SDS011;1339;53.304;10.406;2024-02-14T05:16:37;7.70;;;5.85;;
2658;SDS011;1339;53.304;10.406;2024-02-14T05:19:04;5.90;;;5.07;;
2658;SDS011;1339;53.304;10.406;2024-02-14T05:21:32;6.22;;;5.57;;
2658;SDS011;1339;53.304;10.406;2024-02-14T05:23:59;4.82;;;4.43;;
2658;SDS011;1339;53.304;10.406;2024-02-14T05:26:26;6.18;;;4.78;;
2658;SDS011;1339;53.304;10.406;2024-02-14T05:28:53;6.30;;;5.70;;
2658;SDS011;1339;53.304;10.406;2024-02-14T05:31:20;7.43;;;5.65;;
2658;SDS011;1339;53.304;10.406;2024-02-14T05:33:48;7.32;;;6.03;;
2658;SDS011;1339;53.304;10.406;2024-02-14T05:36:15;9.65;;;5.25;;
2658;SDS011;1339;53.304;10.406;2024-02-14T05:38:43;7.15;;;6.43;;
2658;SDS011;1339;53.304;10.406;2024-02-14T05:41:10;6.72;;;6.03;;
2658;SDS011;1339;53.304;10.406;2024-02-14T05:43:37;7.03;;;6.40;;
2658;SDS011;1339;53.304;10.406;2024-02-14T05:46:04;6.85;;;6.15;;
2658;SDS011;1339;53.304;10.406;2024-02-14T05:48:32;9.32;;;5.85;;
2658;SDS011;1339;53.304;10.406;2024-02-14T05:51:01;8.25;;;7.55;;
2658;SDS011;1339;53.304;10.406;2024-02-14T05:53:28;7.15;;;5.55;;
2658;SDS011;1339;53.304;10.406;2024-02-14T05:55:55;7.63;;;6.90;;
2658;SDS011;1339;53.304;10.406;2024-02-14T05:58:22;10.80;;;6.68;;
2658;SDS011;1339;53.304;10.406;2024-02-14T06:00:53;7.90;;;7.10;;
2658;SDS011;1339;53.304;10.406;2024-02-14T06:03:20;8.27;;;6.40;;
2658;SDS011;1339;53.304;10.406;2024-02-14T06:05:48;7.35;;;6.57;;
2658;SDS011;1339;53.304;10.406;2024-02-14T06:08:16;7.35;;;6.50;;
2658;SDS011;1339;53.304;10.406;2024-02-14T06:10:43;9.48;;;6.90;;
2658;SDS011;1339;53.304;10.406;2024-02-14T06:13:10;7.07;;;6.40;;
2658;SDS011;1339;53.304;10.406;2024-02-14T06:15:37;8.55;;;7.40;;
2658;SDS011;1339;53.304;10.406;2024-02-14T06:18:05;7.70;;;6.95;;
2658;SDS011;1339;53.304;10.406;2024-02-14T06:20:32;9.88;;;7.72;;
2658;SDS011;1339;53.304;10.406;2024-02-14T06:22:59;8.82;;;7.30;;
2658;SDS011;1339;53.304;10.406;2024-02-14T06:25:28;8.98;;;7.45;;
2658;SDS011;1339;53.304;10.406;2024-02-14T06:27:55;8.13;;;7.10;;
2658;SDS011;1339;53.304;10.406;2024-02-14T06:30:22;7.38;;;6.60;;
2658;SDS011;1339;53.304;10.406;2024-02-14T06:32:49;9.75;;;8.70;;
2658;SDS011;1339;53.304;10.406;2024-02-14T06:35:16;7.85;;;6.22;;
2658;SDS011;1339;53.304;10.406;2024-02-14T06:37:45;8.52;;;7.38;;
2658;SDS011;1339;53.304;10.406;2024-02-14T06:40:13;8.38;;;7.05;;
2658;SDS011;1339;53.304;10.406;2024-02-14T06:42:41;9.18;;;7.40;;
2658;SDS011;1339;53.304;10.406;2024-02-14T06:45:08;9.63;;;8.00;;
2658;SDS011;1339;53.304;10.406;2024-02-14T06:47:35;8.00;;;6.68;;
2658;SDS011;1339;53.304;10.406;2024-02-14T06:50:03;8.15;;;7.40;;
2658;SDS011;1339;53.304;10.406;2024-02-14T06:52:30;9.60;;;8.57;;
2658;SDS011;1339;53.304;10.406;2024-02-14T06:54:57;10.00;;;8.52;;
2658;SDS011;1339;53.304;10.406;2024-02-14T06:57:25;9.48;;;8.05;;
2658;SDS011;1339;53.304;10.406;2024-02-14T06:59:53;9.85;;;7.85;;
2658;SDS011;1339;53.304;10.406;2024-02-14T07:02:20;9.18;;;8.27;;
2658;SDS011;1339;53.304;10.406;2024-02-14T07:04:48;9.10;;;8.20;;
2658;SDS011;1339;53.304;10.406;2024-02-14T07:07:15;12.85;;;7.85;;
2658;SDS011;1339;53.304;10.406;2024-02-14T07:09:42;13.82;;;8.65;;
2658;SDS011;1339;53.304;10.406;2024-02-14T07:12:10;9.30;;;8.35;;
2658;SDS011;1339;53.304;10.406;2024-02-14T07:14:37;10.55;;;9.02;;
2658;SDS011;1339;53.304;10.406;2024-02-14T07:17:06;7.78;;;6.97;;
2658;SDS011;1339;53.304;10.406;2024-02-14T07:19:33;11.93;;;8.25;;
2658;SDS011;1339;53.304;10.406;2024-02-14T07:22:00;8.55;;;7.70;;
2658;SDS011;1339;53.304;10.406;2024-02-14T07:24:28;8.25;;;7.40;;
2658;SDS011;1339;53.304;10.406;2024-02-14T07:26:55;10.18;;;8.45;;
2658;SDS011;1339;53.304;10.406;2024-02-14T07:29:22;11.57;;;8.50;;
2658;SDS011;1339;53.304;10.406;2024-02-14T07:31:50;10.82;;;9.75;;
2658;SDS011;1339;53.304;10.406;2024-02-14T07:34:19;11.38;;;9.70;;
2658;SDS011;1339;53.304;10.406;2024-02-14T07:36:46;10.73;;;9.35;;
2658;SDS011;1339;53.304;10.406;2024-02-14T07:39:13;9.30;;;8.48;;
2658;SDS011;1339;53.304;10.406;2024-02-14T07:41:40;8.63;;;7.82;;
2658;SDS011;1339;53.304;10.406;2024-02-14T07:44:07;12.38;;;9.50;;
2658;SDS011;1339;53.304;10.406;2024-02-14T07:46:34;12.02;;;9.05;;
2658;SDS011;1339;53.304;10.406;2024-02-14T07:49:01;9.30;;;7.85;;
2658;SDS011;1339;53.304;10.406;2024-02-14T07:51:31;10.90;;;7.90;;
2658;SDS011;1339;53.304;10.406;2024-02-14T07:54:01;9.88;;;8.60;;
2658;SDS011;1339;53.304;10.406;2024-02-14T07:56:28;9.52;;;8.52;;
2658;SDS011;1339;53.304;10.406;2024-02-14T07:58:55;9.40;;;8.43;;
2658;SDS011;1339;53.304;10.406;2024-02-14T08:01:23;8.93;;;7.80;;
2658;SDS011;1339;53.304;10.406;2024-02-14T08:03:50;10.25;;;7.60;;
2658;SDS011;1339;53.304;10.406;2024-02-14T08:06:17;10.10;;;7.60;;
2658;SDS011;1339;53.304;10.406;2024-02-14T08:08:45;8.75;;;7.85;;
2658;SDS011;1339;53.304;10.406;2024-02-14T08:11:14;12.13;;;8.90;;
2658;SDS011;1339;53.304;10.406;2024-02-14T08:13:41;9.48;;;8.07;;
2658;SDS011;1339;53.304;10.406;2024-02-14T08:16:08;8.90;;;8.00;;
2658;SDS011;1339;53.304;10.406;2024-02-14T08:18:35;9.52;;;7.68;;
2658;SDS011;1339;53.304;10.406;2024-02-14T08:21:04;9.60;;;7.63;;
2658;SDS011;1339;53.304;10.406;2024-02-14T08:23:32;8.65;;;7.82;;
2658;SDS011;1339;53.304;10.406;2024-02-14T08:26:01;9.13;;;8.18;;
2658;SDS011;1339;53.304;10.406;2024-02-14T08:28:35;10.95;;;9.65;;
2658;SDS011;1339;53.304;10.406;2024-02-14T08:31:02;8.57;;;7.78;;
2658;SDS011;1339;53.304;10.406;2024-02-14T08:33:29;9.00;;;8.00;;
2658;SDS011;1339;53.304;10.406;2024-02-14T08:35:56;12.52;;;8.20;;
2658;SDS011;1339;53.304;10.406;2024-02-14T08:38:23;9.30;;;8.38;;
2658;SDS011;1339;53.304;10.406;2024-02-14T08:40:50;7.40;;;6.80;;
2658;SDS011;1339;53.304;10.406;2024-02-14T08:43:19;7.03;;;6.43;;
2658;SDS011;1339;53.304;10.406;2024-02-14T08:45:46;6.68;;;6.07;;
2658;SDS011;1339;53.304;10.406;2024-02-14T08:48:13;9.50;;;8.13;;
2658;SDS011;1339;53.304;10.406;2024-02-14T08:50:40;7.80;;;6.93;;
2658;SDS011;1339;53.304;10.406;2024-02-14T08:53:07;7.75;;;7.05;;
2658;SDS011;1339;53.304;10.406;2024-02-14T08:55:34;9.15;;;7.38;;
2658;SDS011;1339;53.304;10.406;2024-02-14T08:58:03;6.75;;;6.07;;
2658;SDS011;1339;53.304;10.406;2024-02-14T09:00:31;6.90;;;6.25;;
2658;SDS011;1339;53.304;10.406;2024-02-14T09:03:00;5.63;;;5.13;;
2658;SDS011;1339;53.304;10.406;2024-02-14T09:05:27;7.30;;;5.60;;
2658;SDS011;1339;53.304;10.406;2024-02-14T09:07:54;6.07;;;5.57;;
2658;SDS011;1339;53.304;10.406;2024-02-14T09:10:22;5.80;;;5.30;;
2658;SDS011;1339;53.304;10.406;2024-02-14T09:12:49;5.53;;;4.97;;
2658;SDS011;1339;53.304;10.406;2024-02-14T09:15:16;4.80;;;4.38;;
2658;SDS011;1339;53.304;10.406;2024-02-14T09:17:45;4.82;;;4.43;;
2658;SDS011;1339;53.304;10.406;2024-02-14T09:20:12;5.10;;;4.70;;
2658;SDS011;1339;53.304;10.406;2024-02-14T09:22:40;3.55;;;3.25;;
2658;SDS011;1339;53.304;10.406;2024-02-14T09:25:07;4.35;;;3.95;;
2658;SDS011;1339;53.304;10.406;2024-02-14T09:27:35;3.35;;;3.15;;
2658;SDS011;1339;53.304;10.406;2024-02-14T09:30:02;3.17;;;2.97;;
2658;SDS011;1339;53.304;10.406;2024-02-14T09:32:29;3.50;;;3.20;;
2658;SDS011;1339;53.304;10.406;2024-02-14T09:34:58;3.45;;;3.13;;
2658;SDS011;1339;53.304;10.406;2024-02-14T09:37:25;3.65;;;3.35;;
2658;SDS011;1339;53.304;10.406;2024-02-14T09:39:53;2.75;;;2.55;;
2658;SDS011;1339;53.304;10.406;2024-02-14T09:42:22;2.40;;;2.30;;
2658;SDS011;1339;53.304;10.406;2024-02-14T09:44:51;3.17;;;2.97;;
2658;SDS011;1339;53.304;10.406;2024-02-14T09:47:19;3.15;;;2.90;;
2658;SDS011;1339;53.304;10.406;2024-02-14T09:49:47;3.03;;;2.83;;
2658;SDS011;1339;53.304;10.406;2024-02-14T09:52:16;2.97;;;2.72;;
2658;SDS011;1339;53.304;10.406;2024-02-14T09:54:45;3.00;;;2.80;;
2658;SDS011;1339;53.304;10.406;2024-02-14T09:57:12;3.67;;;3.38;;
2658;SDS011;1339;53.304;10.406;2024-02-14T09:59:41;2.70;;;2.50;;
2658;SDS011;1339;53.304;10.406;2024-02-14T10:02:08;3.47;;;3.17;;
2658;SDS011;1339;53.304;10.406;2024-02-14T10:04:36;2.60;;;2.40;;
2658;SDS011;1339;53.304;10.406;2024-02-14T10:07:04;4.45;;;2.75;;
2658;SDS011;1339;53.304;10.406;2024-02-14T10:09:39;5.05;;;4.75;;
2658;SDS011;1339;53.304;10.406;2024-02-14T10:12:07;3.22;;;2.85;;
2658;SDS011;1339;53.304;10.406;2024-02-14T10:14:34;3.88;;;3.55;;
2658;SDS011;1339;53.304;10.406;2024-02-14T10:17:02;2.95;;;2.75;;
2658;SDS011;1339;53.304;10.406;2024-02-14T10:19:29;2.30;;;2.20;;
2658;SDS011;1339;53.304;10.406;2024-02-14T10:21:56;2.33;;;2.13;;
2658;SDS011;1339;53.304;10.406;2024-02-14T10:24:24;2.72;;;2.53;;
2658;SDS011;1339;53.304;10.406;2024-02-14T10:26:53;2.78;;;2.58;;
2658;SDS011;1339;53.304;10.406;2024-02-14T10:29:22;2.67;;;2.05;;
2658;SDS011;1339;53.304;10.406;2024-02-14T10:31:50;2.63;;;2.42;;
2658;SDS011;1339;53.304;10.406;2024-02-14T10:34:18;2.47;;;2.28;;
2658;SDS011;1339;53.304;10.406;2024-02-14T10:36:46;2.10;;;1.90;;
2658;SDS011;1339;53.304;10.406;2024-02-14T10:39:13;2.97;;;2.78;;
2658;SDS011;1339;53.304;10.406;2024-02-14T10:41:42;2.50;;;2.30;;
2658;SDS011;1339;53.304;10.406;2024-02-14T10:44:10;2.60;;;2.40;;
2658;SDS011;1339;53.304;10.406;2024-02-14T10:46:38;2.72;;;2.53;;
2658;SDS011;1339;53.304;10.406;2024-02-14T10:49:06;2.78;;;2.58;;
2658;SDS011;1339;53.304;10.406;2024-02-14T10:51:35;4.50;;;2.58;;
2658;SDS011;1339;53.304;10.406;2024-02-14T10:54:03;2.42;;;2.22;;
2658;SDS011;1339;53.304;10.406;2024-02-14T10:56:32;2.40;;;2.30;;
2658;SDS011;1339;53.304;10.406;2024-02-14T10:58:59;2.78;;;2.58;;
2658;SDS011;1339;53.304;10.406;2024-02-14T11:01:28;3.00;;;2.80;;
2658;SDS011;1339;53.304;10.406;2024-02-14T11:03:58;3.28;;;2.88;;
2658;SDS011;1339;53.304;10.406;2024-02-14T11:06:25;2.97;;;2.78;;
2658;SDS011;1339;53.304;10.406;2024-02-14T11:08:57;3.55;;;2.92;;
2658;SDS011;1339;53.304;10.406;2024-02-14T11:11:27;3.10;;;2.90;;
2658;SDS011;1339;53.304;10.406;2024-02-14T11:13:55;3.30;;;3.10;;
2658;SDS011;1339;53.304;10.406;2024-02-14T11:16:24;3.53;;;3.22;;
2658;SDS011;1339;53.304;10.406;2024-02-14T11:18:54;3.40;;;3.10;;
2658;SDS011;1339;53.304;10.406;2024-02-14T11:21:34;4.25;;;3.42;;
2658;SDS011;1339;53.304;10.406;2024-02-14T11:24:04;4.22;;;3.92;;
2658;SDS011;1339;53.304;10.406;2024-02-14T11:26:37;3.67;;;3.35;;
2658;SDS011;1339;53.304;10.406;2024-02-14T11:29:04;4.10;;;3.80;;
2658;SDS011;1339;53.304;10.406;2024-02-14T11:31:32;4.03;;;3.72;;
2658;SDS011;1339;53.304;10.406;2024-02-14T11:34:05;4.85;;;3.92;;
2658;SDS011;1339;53.304;10.406;2024-02-14T11:36:33;4.68;;;4.28;;
2658;SDS011;1339;53.304;10.406;2024-02-14T11:39:02;3.80;;;3.50;;
2658;SDS011;1339;53.304;10.406;2024-02-14T11:41:32;5.03;;;4.53;;
2658;SDS011;1339;53.304;10.406;2024-02-14T11:44:00;3.85;;;3.55;;
2658;SDS011;1339;53.304;10.406;2024-02-14T11:46:29;4.07;;;3.78;;
2658;SDS011;1339;53.304;10.406;2024-02-14T11:48:55;4.15;;;3.85;;
2658;SDS011;1339;53.304;10.406;2024-02-14T11:51:23;4.00;;;3.70;;
2658;SDS011;1339;53.304;10.406;2024-02-14T11:53:51;4.18;;;3.88;;
2658;SDS011;1339;53.304;10.406;2024-02-14T11:56:18;4.28;;;3.97;;
2658;SDS011;1339;53.304;10.406;2024-02-14T11:58:47;6.50;;;4.63;;
2658;SDS011;1339;53.304;10.406;2024-02-14T12:01:16;4.35;;;3.95;;
2658;SDS011;1339;53.304;10.406;2024-02-14T12:03:43;5.20;;;4.20;;
2658;SDS011;1339;53.304;10.406;2024-02-14T12:06:11;5.20;;;4.70;;
2658;SDS011;1339;53.304;10.406;2024-02-14T12:08:39;4.60;;;4.20;;
2658;SDS011;1339;53.304;10.406;2024-02-14T12:11:07;4.30;;;4.00;;
2658;SDS011;1339;53.304;10.406;2024-02-14T12:13:34;4.82;;;4.38;;
2658;SDS011;1339;53.304;10.406;2024-02-14T12:16:03;4.65;;;4.25;;
2658;SDS011;1339;53.304;10.406;2024-02-14T12:18:30;4.90;;;4.50;;
2658;SDS011;1339;53.304;10.406;2024-02-14T12:21:05;5.45;;;4.88;;
2658;SDS011;1339;53.304;10.406;2024-02-14T12:23:33;5.75;;;5.30;;
2658;SDS011;1339;53.304;10.406;2024-02-14T12:26:02;7.70;;;6.90;;
2658;SDS011;1339;53.304;10.406;2024-02-14T12:28:30;6.40;;;5.80;;
2658;SDS011;1339;53.304;10.406;2024-02-14T12:30:57;8.60;;;7.22;;
2658;SDS011;1339;53.304;10.406;2024-02-14T12:33:25;8.80;;;8.10;;
2658;SDS011;1339;53.304;10.406;2024-02-14T12:35:53;7.55;;;6.45;;
2658;SDS011;1339;53.304;10.406;2024-02-14T12:38:21;8.65;;;7.25;;
2658;SDS011;1339;53.304;10.406;2024-02-14T12:40:49;7.40;;;6.68;;
2658;SDS011;1339;53.304;10.406;2024-02-14T12:43:18;8.75;;;7.85;;
2658;SDS011;1339;53.304;10.406;2024-02-14T12:45:45;8.77;;;7.88;;
2658;SDS011;1339;53.304;10.406;2024-02-14T12:48:12;8.60;;;7.80;;
2658;SDS011;1339;53.304;10.406;2024-02-14T12:50:40;10.45;;;9.38;;
2658;SDS011;1339;53.304;10.406;2024-02-14T12:53:12;9.35;;;8.45;;
2658;SDS011;1339;53.304;10.406;2024-02-14T12:55:40;12.48;;;8.43;;
2658;SDS011;1339;53.304;10.406;2024-02-14T12:58:07;12.50;;;9.38;;
2658;SDS011;1339;53.304;10.406;2024-02-14T13:00:36;12.88;;;8.45;;
2658;SDS011;1339;53.304;10.406;2024-02-14T13:03:04;10.93;;;9.00;;
2658;SDS011;1339;53.304;10.406;2024-02-14T13:05:31;10.50;;;9.18;;
2658;SDS011;1339;53.304;10.406;2024-02-14T13:08:00;9.07;;;8.18;;
2658;SDS011;1339;53.304;10.406;2024-02-14T13:10:27;9.48;;;8.52;;
2658;SDS011;1339;53.304;10.406;2024-02-14T13:12:54;12.57;;;11.00;;
2658;SDS011;1339;53.304;10.406;2024-02-14T13:15:21;8.90;;;7.70;;
2658;SDS011;1339;53.304;10.406;2024-02-14T13:17:49;8.15;;;7.40;;
2658;SDS011;1339;53.304;10.406;2024-02-14T13:20:17;11.05;;;9.50;;
2658;SDS011;1339;53.304;10.406;2024-02-14T13:22:44;8.68;;;7.78;;
2658;SDS011;1339;53.304;10.406;2024-02-14T13:25:11;10.07;;;7.70;;
2658;SDS011;1339;53.304;10.406;2024-02-14T13:27:39;8.82;;;7.93;;
2658;SDS011;1339;53.304;10.406;2024-02-14T13:30:09;9.70;;;8.70;;
2658;SDS011;1339;53.304;10.406;2024-02-14T13:32:36;7.90;;;7.20;;
2658;SDS011;1339;53.304;10.406;2024-02-14T13:35:05;7.72;;;7.13;;
2658;SDS011;1339;53.304;10.406;2024-02-14T13:37:33;6.85;;;6.25;;
2658;SDS011;1339;53.304;10.406;2024-02-14T13:40:01;14.27;;;8.00;;
2658;SDS011;1339;53.304;10.406;2024-02-14T13:42:29;6.78;;;6.15;;
2658;SDS011;1339;53.304;10.406;2024-02-14T13:44:56;7.30;;;6.53;;
2658;SDS011;1339;53.304;10.406;2024-02-14T13:47:23;7.63;;;6.97;;
2658;SDS011;1339;53.304;10.406;2024-02-14T13:49:50;7.13;;;6.55;;
2658;SDS011;1339;53.304;10.406;2024-02-14T13:52:19;6.95;;;6.25;;
2658;SDS011;1339;53.304;10.406;2024-02-14T13:54:46;7.60;;;6.80;;
2658;SDS011;1339;53.304;10.406;2024-02-14T13:57:13;7.15;;;6.45;;
2658;SDS011;1339;53.304;10.406;2024-02-14T13:59:40;6.47;;;5.88;;
2658;SDS011;1339;53.304;10.406;2024-02-14T14:02:08;6.35;;;5.85;;
2658;SDS011;1339;53.304;10.406;2024-02-14T14:04:35;7.15;;;6.45;;
2658;SDS011;1339;53.304;10.406;2024-02-14T14:07:03;6.13;;;5.53;;
2658;SDS011;1339;53.304;10.406;2024-02-14T14:09:31;6.03;;;5.53;;
2658;SDS011;1339;53.304;10.406;2024-02-14T14:11:58;5.68;;;5.22;;
2658;SDS011;1339;53.304;10.406;2024-02-14T14:14:25;8.25;;;6.68;;
2658;SDS011;1339;53.304;10.406;2024-02-14T14:16:53;6.00;;;5.50;;
2658;SDS011;1339;53.304;10.406;2024-02-14T14:19:22;6.78;;;6.07;;
2658;SDS011;1339;53.304;10.406;2024-02-14T14:21:49;7.20;;;6.60;;
2658;SDS011;1339;53.304;10.406;2024-02-14T14:24:16;7.55;;;6.95;;
2658;SDS011;1339;53.304;10.406;2024-02-14T14:26:44;6.70;;;6.15;;
2658;SDS011;1339;53.304;10.406;2024-02-14T14:29:11;7.05;;;6.53;;
2658;SDS011;1339;53.304;10.406;2024-02-14T14:31:39;7.45;;;6.82;;
2658;SDS011;1339;53.304;10.406;2024-02-14T14:34:06;6.25;;;5.75;;
2658;SDS011;1339;53.304;10.406;2024-02-14T14:36:33;6.47;;;5.95;;
2658;SDS011;1339;53.304;10.406;2024-02-14T14:39:02;7.88;;;6.13;;
2658;SDS011;1339;53.304;10.406;2024-02-14T14:41:29;7.72;;;6.93;;
2658;SDS011;1339;53.304;10.406;2024-02-14T14:43:58;8.23;;;7.43;;
2658;SDS011;1339;53.304;10.406;2024-02-14T14:46:25;7.88;;;7.18;;
2658;SDS011;1339;53.304;10.406;2024-02-14T14:48:52;7.55;;;6.88;;
2658;SDS011;1339;53.304;10.406;2024-02-14T14:51:19;8.77;;;7.97;;
2658;SDS011;1339;53.304;10.406;2024-02-14T14:53:46;9.25;;;8.02;;
2658;SDS011;1339;53.304;10.406;2024-02-14T14:56:14;7.32;;;6.63;;
2658;SDS011;1339;53.304;10.406;2024-02-14T14:58:41;10.00;;;9.13;;
2658;SDS011;1339;53.304;10.406;2024-02-14T15:01:09;7.25;;;6.65;;
2658;SDS011;1339;53.304;10.406;2024-02-14T15:03:38;9.43;;;8.20;;